Time;durP1;ratioP1;P1;durP2;ratioP2;P2;SDS_P1;SDS_P2;PMS_P1;PMS_P2;Temp;Humidity;BMP_temperature;BMP_pressure;BME280_temperature;BME280_humidity;BME280_pressure;Samples;Min_cycle;Max_cycle;Signal;HPM_P1;HPM_P2
2021/04/30 00:00:05;;;;;;;16.20;10.20;;;;;;;9.88;97.47;95367.72;1047909;28;20020;-64
2021/04/30 00:00:35;;;;;;;11.07;9.30;;;;;;;9.82;98.02;95371.50;1048379;28;20029;-64
2021/04/30 00:01:05;;;;;;;11.40;9.37;;;;;;;9.82;98.35;95368.81;1052357;28;20464;-64
2021/04/30 00:01:36;;;;;;;13.00;9.70;;;;;;;9.77;98.13;95374.19;1052633;28;20038;-64
2021/04/30 00:02:06;;;;;;;12.97;9.87;;;;;;;9.79;98.44;95372.06;1052550;28;20101;-65
2021/04/30 00:02:37;;;;;;;13.30;10.27;;;;;;;9.77;98.84;95372.31;1052596;28;20419;-65
2021/04/30 00:03:08;;;;;;;13.73;9.90;;;;;;;9.77;98.76;95369.66;1052625;28;20024;-64
2021/04/30 00:03:38;;;;;;;14.47;9.20;;;;;;;9.75;98.98;95371.03;1052449;28;20711;-64
2021/04/30 00:04:08;;;;;;;12.40;9.80;;;;;;;9.74;98.69;95372.91;1052592;28;20024;-64
2021/04/30 00:04:39;;;;;;;15.13;9.93;;;;;;;9.71;98.38;95373.44;1052470;28;20051;-65
2021/04/30 00:05:10;;;;;;;14.77;9.87;;;;;;;9.67;98.70;95368.94;1052591;28;20031;-65
2021/04/30 00:05:40;;;;;;;13.25;9.73;;;;;;;9.66;98.60;95370.81;1052505;28;20601;-65
2021/04/30 00:06:11;;;;;;;11.07;9.30;;;;;;;9.67;98.31;95368.94;1052618;28;20029;-64
2021/04/30 00:06:41;;;;;;;13.50;9.17;;;;;;;9.69;98.38;95369.47;1052586;28;20016;-65
2021/04/30 00:07:12;;;;;;;14.50;9.27;;;;;;;9.69;98.18;95372.16;1052150;28;20016;-64
2021/04/30 00:07:42;;;;;;;13.43;9.03;;;;;;;9.68;98.08;95370.56;1052068;28;20110;-65
2021/04/30 00:08:13;;;;;;;13.53;9.67;;;;;;;9.68;98.26;95368.69;1052287;28;20073;-65
2021/04/30 00:08:43;;;;;;;12.83;9.00;;;;;;;9.69;98.44;95370.28;1047957;28;20428;-65
2021/04/30 00:09:13;;;;;;;12.17;9.67;;;;;;;9.72;98.47;95369.69;1052280;28;20168;-65
2021/04/30 00:09:44;;;;;;;14.03;10.40;;;;;;;9.72;98.79;95361.69;1047973;28;20029;-64
2021/04/30 00:10:14;;;;;;;12.43;9.80;;;;;;;9.68;99.51;95371.34;1048187;28;20015;-64
2021/04/30 00:10:45;;;;;;;14.33;9.67;;;;;;;9.72;99.11;95371.56;1052327;28;20020;-64
2021/04/30 00:11:15;;;;;;;13.83;9.50;;;;;;;9.72;98.85;95361.69;1048072;28;20063;-64
2021/04/30 00:11:49;;;;;;;13.70;9.07;;;;;;;9.73;98.73;95371.31;1052265;28;20032;-65
2021/04/30 00:12:19;;;;;;;12.23;9.35;;;;;;;9.74;98.52;95370.22;1052264;28;20457;-65
2021/04/30 00:12:50;;;;;;;15.60;9.83;;;;;;;9.75;98.97;95371.03;1052293;28;20024;-64
2021/04/30 00:13:20;;;;;;;15.70;10.00;;;;;;;9.71;99.69;95376.13;1052529;28;20020;-64
2021/04/30 00:13:50;;;;;;;14.83;10.17;;;;;;;9.70;99.57;95371.06;1052576;28;20453;-64
2021/04/30 00:14:21;;;;;;;15.70;9.40;;;;;;;9.70;99.43;95371.84;1052197;28;20389;-64
2021/04/30 00:14:51;;;;;;;12.53;9.87;;;;;;;9.72;98.95;95368.91;1052215;28;20119;-65
2021/04/30 00:15:22;;;;;;;15.83;10.23;;;;;;;9.72;98.38;95371.56;1052205;28;20527;-65
2021/04/30 00:15:53;;;;;;;13.13;9.57;;;;;;;9.73;98.20;95373.19;1052328;28;20493;-65
2021/04/30 00:16:23;;;;;;;13.13;8.87;;;;;;;9.73;98.35;95365.97;1052574;28;20020;-64
2021/04/30 00:16:53;;;;;;;14.43;10.27;;;;;;;9.78;98.10;95370.47;1052523;28;20061;-64
2021/04/30 00:17:24;;;;;;;13.47;9.30;;;;;;;9.76;97.86;95373.41;1052171;28;20071;-65
2021/04/30 00:17:54;;;;;;;14.37;9.40;;;;;;;9.71;97.47;95370.78;1052318;28;20020;-64
2021/04/30 00:18:25;;;;;;;12.77;9.20;;;;;;;9.69;97.96;95369.47;1052222;28;20028;-64
2021/04/30 00:18:55;;;;;;;12.63;9.40;;;;;;;9.67;98.17;95375.06;1052257;28;20024;-65
2021/04/30 00:19:26;;;;;;;14.67;9.03;;;;;;;9.66;98.13;95373.50;1054261;28;20065;-64
2021/04/30 00:19:56;;;;;;;12.50;9.73;;;;;;;9.67;98.62;95372.41;1053400;28;20027;-64
2021/04/30 00:20:27;;;;;;;15.40;9.80;;;;;;;9.68;98.60;95375.91;1053502;28;20020;-64
2021/04/30 00:20:59;;;;;;;11.90;9.07;;;;;;;9.65;98.77;95369.22;1053176;28;20357;-65
2021/04/30 00:21:29;;;;;;;13.45;9.73;;;;;;;9.67;98.74;95372.41;1054534;28;20479;-65
2021/04/30 00:22:00;;;;;;;13.97;9.70;;;;;;;9.71;98.53;95365.44;1052600;28;20031;-65
2021/04/30 00:22:30;;;;;;;15.30;9.53;;;;;;;9.75;98.56;95371.03;1052233;28;20020;-64
2021/04/30 00:23:01;;;;;;;13.80;9.47;;;;;;;9.71;97.97;95364.66;1052471;28;20406;-64
2021/04/30 00:23:33;;;;;;;12.83;10.00;;;;;;;9.69;97.32;95364.16;1052458;28;20043;-65
2021/04/30 00:24:05;;;;;;;14.88;9.52;;;;;;;9.68;97.48;95368.69;1052576;28;20103;-65
2021/04/30 00:24:36;;;;;;;11.43;9.10;;;;;;;9.67;97.29;95361.72;1052530;28;20095;-65
2021/04/30 00:25:07;;;;;;;12.63;9.27;;;;;;;9.69;97.18;95370.28;1052654;28;20073;-64
2021/04/30 00:25:41;;;;;;;15.30;9.17;;;;;;;9.72;96.79;95361.69;1052641;28;20125;-65
2021/04/30 00:26:11;;;;;;;12.57;9.35;;;;;;;9.75;96.20;95363.81;1052539;28;20369;-64
2021/04/30 00:26:41;;;;;;;11.90;8.83;;;;;;;9.76;96.60;95367.28;1052521;28;20060;-65
2021/04/30 00:27:12;;;;;;;12.90;9.80;;;;;;;9.73;96.47;95367.84;1052520;28;20622;-65
2021/04/30 00:27:42;;;;;;;12.30;9.10;;;;;;;9.74;95.88;95367.56;1052384;28;20024;-64
2021/04/30 00:28:13;;;;;;;15.43;9.30;;;;;;;9.73;95.41;95363.31;1052486;28;20027;-64
2021/04/30 00:28:43;;;;;;;15.13;9.90;;;;;;;9.74;95.45;95367.56;1052508;28;20484;-65
2021/04/30 00:29:14;;;;;;;13.57;9.90;;;;;;;9.72;95.46;95358.22;1052155;28;20496;-64
2021/04/30 00:29:44;;;;;;;18.20;9.63;;;;;;;9.75;95.57;95361.16;1052154;28;20024;-65
2021/04/30 00:30:15;;;;;;;13.67;9.23;;;;;;;9.76;95.88;95364.59;1047978;28;20025;-64
2021/04/30 00:30:45;;;;;;;12.63;9.07;;;;;;;9.74;95.50;95364.91;1048067;28;20021;-65
2021/04/30 00:31:18;;;;;;;13.63;9.83;;;;;;;9.72;95.59;95368.91;1052287;28;20016;-64
2021/04/30 00:31:48;;;;;;;13.25;9.23;;;;;;;9.69;95.12;95362.28;1052192;28;20024;-64
2021/04/30 00:32:19;;;;;;;15.40;10.00;;;;;;;9.67;95.77;95367.06;1052511;28;20024;-64
2021/04/30 00:32:49;;;;;;;12.87;9.40;;;;;;;9.66;95.99;95357.47;1052458;28;20024;-64
2021/04/30 00:33:20;;;;;;;12.93;9.13;;;;;;;9.66;95.60;95362.81;1052525;28;20085;-64
2021/04/30 00:33:50;;;;;;;12.38;9.38;;;;;;;9.66;96.07;95362.81;1052362;28;20062;-64
2021/04/30 00:34:21;;;;;;;15.57;10.00;;;;;;;9.64;96.61;95364.97;1052455;28;20330;-64
2021/04/30 00:34:51;;;;;;;11.57;9.40;;;;;;;9.62;96.42;95365.25;1052509;28;20027;-65
2021/04/30 00:35:22;;;;;;;14.50;9.70;;;;;;;9.59;96.54;95365.81;1052582;28;20016;-64
2021/04/30 00:35:52;;;;;;;16.67;9.90;;;;;;;9.59;96.69;95365.00;1052433;28;20423;-64
2021/04/30 00:36:23;;;;;;;14.93;10.20;;;;;;;9.56;96.84;95369.03;1052586;28;20403;-64
2021/04/30 00:36:53;;;;;;;13.37;9.33;;;;;;;9.55;97.38;95371.97;1052509;28;20004;-64
2021/04/30 00:37:24;;;;;;;12.53;9.73;;;;;;;9.55;97.54;95366.63;1052585;28;20460;-64
2021/04/30 00:37:54;;;;;;;12.87;10.43;;;;;;;9.54;97.63;95370.38;1051782;28;20016;-64
2021/04/30 00:38:24;;;;;;;15.00;10.47;;;;;;;9.51;97.74;95371.72;1052236;28;20022;-64
2021/04/30 00:38:55;;;;;;;15.70;10.57;;;;;;;9.49;97.69;95362.41;1052033;28;20008;-65
2021/04/30 00:39:25;;;;;;;15.30;10.40;;;;;;;9.50;97.67;95366.69;1048062;28;20064;-64
2021/04/30 00:39:56;;;;;;;18.20;10.73;;;;;;;9.49;97.78;95375.75;1047854;28;20449;-65
2021/04/30 00:40:26;;;;;;;16.23;10.80;;;;;;;9.48;97.46;95368.84;1047794;28;20008;-64
2021/04/30 00:40:57;;;;;;;14.50;10.13;;;;;;;9.53;97.43;95372.25;1048015;28;20323;-65
2021/04/30 00:41:27;;;;;;;16.73;10.80;;;;;;;9.52;97.54;95372.53;1052284;28;20365;-64
2021/04/30 00:41:57;;;;;;;13.03;10.37;;;;;;;9.53;97.98;95371.47;1052471;28;20020;-64
2021/04/30 00:42:28;;;;;;;16.23;10.07;;;;;;;9.50;98.12;95375.47;1052546;28;20417;-65
2021/04/30 00:42:58;;;;;;;16.77;10.87;;;;;;;9.53;98.17;95371.47;1052560;28;20023;-64
2021/04/30 00:43:29;;;;;;;13.47;10.23;;;;;;;9.48;97.90;95369.63;1052157;28;20083;-65
2021/04/30 00:44:06;;;;;;;18.20;11.30;;;;;;;9.47;97.76;95378.72;1052208;28;20005;-64
2021/04/30 00:44:36;;;;;;;13.75;10.68;;;;;;;9.45;97.25;95372.84;1052218;28;20023;-64
2021/04/30 00:45:07;;;;;;;16.63;10.10;;;;;;;9.47;97.65;95375.22;1052176;28;20031;-64
2021/04/30 00:45:37;;;;;;;17.10;10.37;;;;;;;9.50;98.11;95385.34;1052330;28;20019;-64
2021/04/30 00:46:08;;;;;;;12.97;10.73;;;;;;;9.48;98.55;95390.19;1052490;28;20484;-64
2021/04/30 00:46:38;;;;;;;17.43;10.83;;;;;;;9.48;98.63;95379.50;1052448;28;20024;-64
2021/04/30 00:47:25;;;;;;;15.03;10.37;;;;;;;9.45;98.02;95382.72;1052476;28;20020;-64
2021/04/30 00:47:55;;;;;;;17.30;11.02;;;;;;;9.42;97.75;95389.41;1052139;28;20087;-64
2021/04/30 00:48:26;;;;;;;17.23;11.57;;;;;;;9.41;98.10;95381.66;1052009;28;20025;-64
2021/04/30 00:48:56;;;;;;;16.47;10.87;;;;;;;9.40;98.42;95390.75;1052096;28;20012;-64
2021/04/30 00:49:26;;;;;;;13.17;10.57;;;;;;;9.37;98.04;95390.25;1052198;28;20012;-64
2021/04/30 00:50:00;;;;;;;16.33;11.13;;;;;;;9.34;98.34;95393.44;1052507;28;20009;-64
2021/04/30 00:50:32;;;;;;;13.35;10.65;;;;;;;9.35;98.61;95389.72;1052400;28;20008;-64
2021/04/30 00:51:02;;;;;;;12.98;10.52;;;;;;;9.41;97.84;95385.13;1052395;28;20016;-64
2021/04/30 00:51:33;;;;;;;16.57;10.73;;;;;;;9.42;98.34;95388.59;1052503;28;20020;-64
2021/04/30 00:52:03;;;;;;;14.63;10.93;;;;;;;9.40;98.10;95391.53;1052451;28;20013;-64
2021/04/30 00:52:36;;;;;;;16.13;10.70;;;;;;;9.40;97.98;95394.22;1052174;28;20013;-64
2021/04/30 00:53:06;;;;;;;18.60;11.57;;;;;;;9.42;98.19;95388.59;1052436;28;20016;-64
2021/04/30 00:53:37;;;;;;;18.33;11.60;;;;;;;9.45;97.66;95393.38;1052107;28;20082;-64
2021/04/30 00:54:07;;;;;;;14.20;11.30;;;;;;;9.42;97.76;95389.41;1047844;28;20023;-64
2021/04/30 00:54:37;;;;;;;14.27;10.70;;;;;;;9.50;97.32;95396.81;1047815;28;20035;-64
2021/04/30 00:55:09;;;;;;;13.47;10.57;;;;;;;9.51;97.61;95392.28;1048107;28;20016;-64
2021/04/30 00:55:40;;;;;;;14.13;11.15;;;;;;;9.50;97.94;95390.69;1052164;28;20051;-64
2021/04/30 00:56:10;;;;;;;19.17;11.40;;;;;;;9.43;98.36;95395.53;1052491;28;20020;-64
2021/04/30 00:56:41;;;;;;;15.40;11.40;;;;;;;9.45;98.41;95391.50;1052439;28;20023;-64
2021/04/30 00:57:11;;;;;;;17.70;11.67;;;;;;;9.44;98.74;95397.13;1052445;28;20044;-64
2021/04/30 00:58:02;;;;;;;15.63;11.27;;;;;;;9.46;97.87;95397.63;1052266;28;20058;-64
2021/04/30 00:58:33;;;;;;;15.60;11.13;;;;;;;9.43;97.95;95392.88;1051954;28;20094;-64
2021/04/30 00:59:03;;;;;;;15.97;12.10;;;;;;;9.44;98.33;95394.47;1052122;28;20020;-64
2021/04/30 00:59:33;;;;;;;17.37;11.23;;;;;;;9.43;97.94;95392.88;1052416;28;20343;-64
2021/04/30 01:00:05;;;;;;;15.67;11.80;;;;;;;9.39;98.44;95395.28;1052413;28;20031;-64
2021/04/30 01:00:36;;;;;;;16.27;11.48;;;;;;;9.39;98.82;95392.63;1052433;28;20031;-64
2021/04/30 01:01:07;;;;;;;13.77;11.27;;;;;;;9.37;99.13;95394.78;1052404;28;20103;-64
2021/04/30 01:01:38;;;;;;;16.83;11.37;;;;;;;9.37;98.81;95400.91;1052548;28;20377;-64
2021/04/30 01:02:08;;;;;;;14.13;11.50;;;;;;;9.36;99.13;95396.63;1052155;28;20085;-64
2021/04/30 01:02:39;;;;;;;14.50;11.37;;;;;;;9.33;98.75;95393.72;1052220;28;20501;-65
2021/04/30 01:03:09;;;;;;;15.97;11.23;;;;;;;9.32;97.41;95394.81;1052035;28;20024;-64
2021/04/30 01:03:42;;;;;;;14.03;10.97;;;;;;;9.34;97.36;95390.00;1052097;28;20020;-64
2021/04/30 01:04:12;;;;;;;13.75;11.10;;;;;;;9.38;96.93;95393.69;1052108;28;20056;-64
2021/04/30 01:04:43;;;;;;;16.37;11.37;;;;;;;9.37;97.23;95394.78;1052124;28;20028;-64
2021/04/30 01:05:14;;;;;;;15.63;11.67;;;;;;;9.34;96.97;95401.44;1052123;28;20023;-64
2021/04/30 01:05:44;;;;;;;15.13;11.07;;;;;;;9.36;96.91;95404.63;1047898;28;20095;-65
2021/04/30 01:06:14;;;;;;;14.47;10.83;;;;;;;9.38;97.07;95399.03;1051996;28;20016;-65
2021/04/30 01:06:45;;;;;;;13.80;10.90;;;;;;;9.37;97.46;95400.91;1052147;28;20023;-65
2021/04/30 01:07:15;;;;;;;16.43;11.70;;;;;;;9.34;98.10;95406.78;1052106;28;20028;-65
2021/04/30 01:07:46;;;;;;;14.37;11.43;;;;;;;9.30;96.89;95404.94;1052525;28;20024;-65
2021/04/30 01:08:16;;;;;;;16.70;12.40;;;;;;;9.31;96.92;95402.00;1052442;28;20024;-65
2021/04/30 01:08:47;;;;;;;16.03;11.43;;;;;;;9.30;96.97;95407.59;1052144;28;20030;-65
2021/04/30 01:09:17;;;;;;;17.20;12.60;;;;;;;9.29;96.97;95406.03;1052129;28;20109;-65
2021/04/30 01:09:48;;;;;;;16.67;11.93;;;;;;;9.30;96.48;95405.72;1052833;28;20365;-65
2021/04/30 01:10:18;;;;;;;15.23;11.57;;;;;;;9.32;96.92;95410.81;1053052;28;20410;-64
2021/04/30 01:10:48;;;;;;;17.77;11.53;;;;;;;9.32;97.12;95402.81;1053298;28;20024;-64
2021/04/30 01:11:19;;;;;;;16.13;11.93;;;;;;;9.33;97.33;95405.19;1053213;28;20016;-65
2021/04/30 01:11:49;;;;;;;14.53;11.93;;;;;;;9.33;97.45;95402.53;1053307;28;20042;-65
2021/04/30 01:12:20;;;;;;;16.43;12.57;;;;;;;9.32;97.84;95411.59;1048798;28;20047;-65
2021/04/30 01:12:50;;;;;;;15.27;11.97;;;;;;;9.31;97.87;95399.31;1048717;28;20031;-65
2021/04/30 01:13:21;;;;;;;14.60;11.90;;;;;;;9.32;98.17;95398.28;1048737;28;20365;-65
2021/04/30 01:13:51;;;;;;;16.50;11.93;;;;;;;9.30;97.61;95403.06;1048846;28;20401;-65
2021/04/30 01:14:21;;;;;;;15.77;11.93;;;;;;;9.30;97.32;95402.28;1053152;28;20461;-65
2021/04/30 01:14:52;;;;;;;21.10;12.50;;;;;;;9.27;96.41;95400.97;1053326;28;20457;-65
2021/04/30 01:15:24;;;;;;;15.43;12.03;;;;;;;9.26;96.15;95412.69;1052909;28;20020;-65
2021/04/30 01:15:54;;;;;;;17.05;11.70;;;;;;;9.26;96.68;95407.34;1053039;28;20038;-65
2021/04/30 01:16:25;;;;;;;15.37;12.20;;;;;;;9.26;97.03;95399.34;1048833;28;20110;-65
2021/04/30 01:16:55;;;;;;;18.27;12.70;;;;;;;9.29;96.77;95406.81;1049092;28;20465;-65
2021/04/30 01:17:26;;;;;;;15.67;12.10;;;;;;;9.29;96.59;95406.03;1052959;28;20457;-65
2021/04/30 01:17:57;;;;;;;16.65;12.07;;;;;;;9.30;96.41;95400.41;1052996;28;20012;-65
2021/04/30 01:18:27;;;;;;;15.30;11.40;;;;;;;9.25;96.66;95407.63;1053293;28;20023;-65
2021/04/30 01:18:57;;;;;;;15.47;11.60;;;;;;;9.29;96.68;95404.16;1053231;28;20031;-65
2021/04/30 01:19:30;;;;;;;15.07;12.10;;;;;;;9.30;96.37;95405.72;1053282;28;20461;-65
2021/04/30 01:20:00;;;;;;;15.73;12.02;;;;;;;9.29;96.19;95403.34;1053298;28;20024;-65
2021/04/30 01:20:31;;;;;;;15.80;12.37;;;;;;;9.28;96.16;95407.09;1053013;28;20012;-65
2021/04/30 01:21:01;;;;;;;15.27;12.13;;;;;;;9.27;96.46;95400.97;1053045;28;20024;-65
2021/04/30 01:21:32;;;;;;;16.60;12.23;;;;;;;9.29;96.16;95406.03;1053029;28;20012;-65
2021/04/30 01:22:02;;;;;;;16.73;12.57;;;;;;;9.29;96.92;95404.16;1052846;28;20024;-65
2021/04/30 01:22:43;;;;;;;19.33;12.70;;;;;;;9.31;97.37;95406.53;1052696;28;20016;-65
2021/04/30 01:23:13;;;;;;;15.57;12.10;;;;;;;9.32;97.37;95402.81;1052992;28;20027;-65
2021/04/30 01:23:51;;;;;;;15.03;12.20;;;;;;;9.34;97.16;95398.78;1052969;28;20027;-65
2021/04/30 01:24:21;;;;;;;17.60;12.93;;;;;;;9.35;97.04;95400.38;1053167;28;20025;-65
2021/04/30 01:24:52;;;;;;;20.73;12.80;;;;;;;9.34;97.47;95400.66;1053245;28;20473;-64
2021/04/30 01:25:27;;;;;;;18.50;12.40;;;;;;;9.34;97.56;95406.00;1053257;28;20032;-65
2021/04/30 01:25:57;;;;;;;19.80;13.18;;;;;;;9.22;95.95;95400.19;1053142;28;20038;-65
2021/04/30 01:26:28;;;;;;;18.33;12.93;;;;;;;9.15;96.32;95400.47;1053271;28;20020;-65
2021/04/30 01:26:58;;;;;;;15.27;11.97;;;;;;;9.20;96.84;95394.34;1053330;28;20077;-65
2021/04/30 01:27:29;;;;;;;16.30;11.37;;;;;;;9.22;95.91;95402.88;1053264;28;20069;-64
2021/04/30 01:27:59;;;;;;;18.07;12.30;;;;;;;9.21;95.65;95406.59;1053231;28;20020;-65
2021/04/30 01:28:29;;;;;;;17.33;12.13;;;;;;;9.21;96.92;95412.72;1053222;28;20012;-65
2021/04/30 01:29:00;;;;;;;15.00;12.70;;;;;;;9.22;96.81;95411.66;1052996;28;20016;-65
2021/04/30 01:29:30;;;;;;;18.17;12.37;;;;;;;9.24;97.13;95406.03;1052943;28;20008;-65
2021/04/30 01:30:01;;;;;;;14.83;11.97;;;;;;;9.24;96.89;95406.84;1052932;28;20012;-65
2021/04/30 01:30:33;;;;;;;16.10;12.53;;;;;;;9.19;96.07;95411.41;1052883;28;20016;-65
2021/04/30 01:31:03;;;;;;;14.73;11.40;;;;;;;9.15;93.92;95408.47;1052895;28;20016;-65
2021/04/30 01:31:34;;;;;;;17.27;11.07;;;;;;;9.16;93.73;95409.28;1052826;28;20064;-65
2021/04/30 01:32:05;;;;;;;13.20;11.10;;;;;;;9.18;94.35;95409.81;1052827;28;20024;-65
2021/04/30 01:32:35;;;;;;;15.20;11.60;;;;;;;9.18;94.80;95407.94;1052749;28;20065;-65
2021/04/30 01:33:19;;;;;;;14.13;12.20;;;;;;;9.16;94.80;95407.41;1053246;28;20469;-65
2021/04/30 01:33:54;;;;;;;16.58;11.50;;;;;;;9.20;95.05;95413.00;1053017;28;20015;-65
2021/04/30 01:34:25;;;;;;;16.50;11.88;;;;;;;9.21;94.93;95409.25;1053070;28;20024;-65
2021/04/30 01:34:55;;;;;;;14.27;11.57;;;;;;;9.19;95.10;95403.41;1053186;28;20024;-64
2021/04/30 01:35:27;;;;;;;13.20;11.53;;;;;;;9.20;95.24;95410.31;1053163;28;20314;-65
2021/04/30 01:35:57;;;;;;;15.63;11.45;;;;;;;9.21;94.92;95403.91;1053159;28;20024;-65
2021/04/30 01:36:28;;;;;;;17.60;11.60;;;;;;;9.21;94.43;95407.38;1053126;28;20024;-65
2021/04/30 01:36:59;;;;;;;14.90;11.70;;;;;;;9.22;94.78;95413.53;1052814;28;20105;-65
2021/04/30 01:37:29;;;;;;;16.67;11.63;;;;;;;9.22;95.12;95409.00;1052942;28;20057;-65
2021/04/30 01:38:00;;;;;;;16.17;11.97;;;;;;;9.23;94.74;95404.47;1053009;28;20020;-65
2021/04/30 01:38:31;;;;;;;14.23;11.20;;;;;;;9.18;93.52;95410.63;1053314;28;20063;-66
2021/04/30 01:39:07;;;;;;;13.77;10.35;;;;;;;9.16;92.97;95411.94;1049621;28;20023;-65
2021/04/30 01:39:37;;;;;;;15.45;11.05;;;;;;;9.18;92.69;95413.28;1049412;28;20047;-65
2021/04/30 01:40:15;;;;;;;17.93;11.00;;;;;;;9.18;92.99;95418.63;1049795;28;20066;-65
2021/04/30 01:40:46;;;;;;;14.77;10.73;;;;;;;9.19;93.20;95411.41;1051526;28;20016;-65
2021/04/30 01:41:21;;;;;;;17.00;11.77;;;;;;;9.20;93.67;95407.66;1054048;28;20032;-65
2021/04/30 01:41:51;;;;;;;14.93;11.27;;;;;;;9.21;93.66;95411.91;1053745;28;20399;-65
2021/04/30 01:42:21;;;;;;;12.77;11.20;;;;;;;9.17;93.37;95418.91;1053897;28;20023;-65
2021/04/30 01:43:01;;;;;;;15.50;11.70;;;;;;;9.16;93.51;95410.06;1053718;28;20016;-65
2021/04/30 01:43:31;;;;;;;14.50;11.43;;;;;;;9.19;93.57;95419.41;1053463;28;20380;-65
2021/04/30 01:44:04;;;;;;;15.10;10.63;;;;;;;9.16;93.55;95411.94;1052868;28;20024;-65
2021/04/30 01:44:34;;;;;;;15.68;11.63;;;;;;;9.18;93.26;95418.63;1046020;28;20116;-65
2021/04/30 01:45:05;;;;;;;16.10;11.10;;;;;;;9.04;91.48;95409.59;1048704;28;20033;-65
2021/04/30 01:45:40;;;;;;;15.15;10.90;;;;;;;9.07;91.81;95404.53;1048615;28;20106;-65
2021/04/30 01:46:11;;;;;;;15.40;11.07;;;;;;;9.08;92.66;95414.13;1049893;28;20033;-65
2021/04/30 01:46:41;;;;;;;14.50;10.57;;;;;;;9.11;92.21;95407.47;1052867;28;20020;-65
2021/04/30 01:47:11;;;;;;;14.60;11.17;;;;;;;9.10;91.60;95406.63;1048640;28;20016;-65
2021/04/30 01:47:42;;;;;;;15.60;10.90;;;;;;;9.07;91.70;95409.06;1048729;28;20017;-64
2021/04/30 01:48:13;;;;;;;13.90;11.67;;;;;;;8.99;89.36;95407.75;1048612;28;20099;-64
2021/04/30 01:48:44;;;;;;;14.85;10.85;;;;;;;8.95;89.56;95409.38;1052768;28;20497;-65
2021/04/30 01:49:15;;;;;;;16.13;10.63;;;;;;;8.98;90.68;95405.38;1053103;28;20048;-65
2021/04/30 01:49:45;;;;;;;14.03;10.50;;;;;;;8.93;90.91;95411.53;1053196;28;20522;-65
2021/04/30 01:50:16;;;;;;;16.17;11.30;;;;;;;8.89;89.63;95409.69;1053248;28;20050;-66
2021/04/30 01:50:47;;;;;;;14.87;11.27;;;;;;;8.85;90.15;95404.09;1053194;28;20078;-64
2021/04/30 01:51:17;;;;;;;14.60;11.17;;;;;;;8.85;90.75;95402.25;1053131;28;20020;-64
2021/04/30 01:51:47;;;;;;;13.63;10.97;;;;;;;8.85;90.69;95412.09;1053169;28;20472;-65
2021/04/30 01:52:18;;;;;;;14.20;11.03;;;;;;;8.82;90.62;95405.44;1052898;28;20423;-64
2021/04/30 01:52:48;;;;;;;16.97;11.23;;;;;;;8.83;90.57;95407.03;1053086;28;20016;-64
2021/04/30 01:53:29;;;;;;;17.23;11.50;;;;;;;8.83;90.97;95406.25;1053125;28;20024;-62
2021/04/30 01:54:00;;;;;;;15.02;11.00;;;;;;;8.81;91.36;95403.84;1053177;28;20082;-63
2021/04/30 01:54:31;;;;;;;15.65;11.25;;;;;;;8.80;91.68;95404.09;1053073;28;20445;-64
2021/04/30 01:55:01;;;;;;;16.23;11.67;;;;;;;8.79;90.57;95400.66;1053075;28;20024;-64
2021/04/30 01:55:31;;;;;;;16.70;12.37;;;;;;;8.79;91.51;95407.84;1053204;28;20016;-64
2021/04/30 01:56:05;;;;;;;15.07;11.50;;;;;;;8.79;91.24;95411.31;1053129;28;20016;-64
2021/04/30 01:56:36;;;;;;;16.90;11.35;;;;;;;8.74;90.65;95406.00;1053191;28;20016;-64
2021/04/30 01:57:06;;;;;;;12.77;10.53;;;;;;;8.75;91.21;95412.13;1048597;28;20422;-64
2021/04/30 01:57:42;;;;;;;13.57;11.03;;;;;;;8.77;92.24;95415.31;1048556;28;20051;-64
2021/04/30 01:58:12;;;;;;;15.75;12.18;;;;;;;8.76;92.04;95416.41;1048585;28;20048;-64
2021/04/30 01:58:43;;;;;;;16.73;11.83;;;;;;;8.76;92.39;95413.75;1049393;28;20420;-64
2021/04/30 01:59:13;;;;;;;18.00;11.70;;;;;;;8.75;92.26;95423.59;1052842;28;20035;-64
2021/04/30 01:59:44;;;;;;;14.77;11.40;;;;;;;8.73;92.08;95423.06;1053119;28;20020;-64
2021/04/30 02:00:24;;;;;;;18.60;11.53;;;;;;;8.73;92.27;95423.06;1053162;28;20020;-63
2021/04/30 02:00:55;;;;;;;17.50;13.20;;;;;;;8.71;91.88;95429.75;1053198;28;20326;-64
2021/04/30 02:01:26;;;;;;;17.27;12.43;;;;;;;8.72;92.44;95423.34;1053131;28;20095;-64
2021/04/30 02:01:57;;;;;;;20.33;12.57;;;;;;;8.70;92.58;95431.59;1053142;28;20024;-63
2021/04/30 02:02:45;;;;;;;17.83;12.27;;;;;;;8.79;92.57;95429.16;1053181;28;20024;-64
2021/04/30 02:03:16;;;;;;;15.93;11.77;;;;;;;8.83;92.25;95424.88;1053128;28;20020;-64
2021/04/30 02:03:46;;;;;;;15.43;11.47;;;;;;;8.84;92.35;95429.94;1053144;28;20050;-64
2021/04/30 02:04:17;;;;;;;17.27;12.40;;;;;;;8.89;92.16;95425.66;1053138;28;20015;-64
2021/04/30 02:04:47;;;;;;;19.20;11.80;;;;;;;8.92;92.54;95428.59;1053110;28;20008;-64
2021/04/30 02:05:18;;;;;;;17.30;11.80;;;;;;;8.85;91.78;95420.91;1053058;28;20437;-64
2021/04/30 02:05:49;;;;;;;16.48;12.50;;;;;;;8.87;92.54;95427.81;1053054;28;20016;-64
2021/04/30 02:06:20;;;;;;;16.70;12.80;;;;;;;8.85;92.62;95426.22;1053086;28;20012;-64
2021/04/30 02:06:51;;;;;;;16.15;12.57;;;;;;;8.82;92.36;95423.31;1053052;28;20012;-64
2021/04/30 02:07:21;;;;;;;19.93;13.23;;;;;;;8.78;92.51;95420.38;1053046;28;20394;-63
2021/04/30 02:07:52;;;;;;;17.53;12.97;;;;;;;8.75;93.19;95418.28;1052846;28;20016;-64
2021/04/30 02:08:22;;;;;;;16.07;13.37;;;;;;;8.75;93.21;95417.44;1053086;28;20023;-64
2021/04/30 02:08:56;;;;;;;18.73;13.37;;;;;;;8.72;93.07;95416.13;1053175;28;20004;-64
2021/04/30 02:09:26;;;;;;;17.48;12.38;;;;;;;8.74;92.89;95427.31;1053073;28;20522;-64
2021/04/30 02:09:57;;;;;;;18.47;12.43;;;;;;;8.74;92.66;95418.53;1053115;28;20028;-64
2021/04/30 02:10:27;;;;;;;16.97;12.93;;;;;;;8.77;93.05;95425.97;1048581;28;20063;-64
2021/04/30 02:10:58;;;;;;;16.70;12.57;;;;;;;8.69;91.94;95429.19;1048596;28;20465;-64
2021/04/30 02:11:28;;;;;;;17.33;12.73;;;;;;;8.57;90.15;95430.28;1048599;28;20024;-64
2021/04/30 02:12:00;;;;;;;16.90;12.63;;;;;;;8.59;91.10;95419.38;1048642;28;20012;-64
2021/04/30 02:12:30;;;;;;;16.48;12.10;;;;;;;8.61;92.16;95419.91;1053056;28;20028;-64
2021/04/30 02:13:00;;;;;;;20.03;12.60;;;;;;;8.61;91.60;95414.59;1053052;28;20016;-64
2021/04/30 02:13:31;;;;;;;16.47;12.43;;;;;;;8.61;92.46;95422.56;1052999;28;20376;-64
2021/04/30 02:14:03;;;;;;;14.63;11.87;;;;;;;8.65;92.00;95422.81;1052573;28;20050;-65
2021/04/30 02:14:33;;;;;;;17.83;13.18;;;;;;;8.65;91.86;95420.16;1052625;28;20024;-64
2021/04/30 02:15:05;;;;;;;19.13;12.60;;;;;;;8.70;91.90;95420.94;1052653;28;20401;-64
2021/04/30 02:15:38;;;;;;;17.83;12.73;;;;;;;8.63;91.06;95422.28;1048794;28;20031;-64
2021/04/30 02:16:08;;;;;;;16.67;12.63;;;;;;;8.65;91.29;95425.47;1052604;28;20024;-64
2021/04/30 02:16:39;;;;;;;17.50;12.87;;;;;;;8.64;91.18;95422.00;1048494;28;20102;-64
2021/04/30 02:17:09;;;;;;;17.47;13.10;;;;;;;8.64;91.34;95424.69;1049117;28;20024;-64
2021/04/30 02:17:40;;;;;;;18.53;12.47;;;;;;;8.65;91.29;95430.81;1052742;28;20020;-65
2021/04/30 02:18:10;;;;;;;15.23;12.67;;;;;;;8.63;91.66;95420.41;1048576;28;20027;-64
2021/04/30 02:18:40;;;;;;;18.43;12.90;;;;;;;8.63;92.86;95420.41;1052749;28;20016;-64
2021/04/30 02:19:11;;;;;;;19.80;13.20;;;;;;;8.59;92.74;95422.81;1052797;28;20024;-64
2021/04/30 02:19:41;;;;;;;15.03;12.50;;;;;;;8.62;92.41;95421.50;1052735;28;20020;-64
2021/04/30 02:20:12;;;;;;;15.43;12.87;;;;;;;8.67;92.59;95424.16;1053001;28;20020;-64
2021/04/30 02:20:43;;;;;;;19.73;12.85;;;;;;;8.66;91.74;95419.91;1052721;28;20376;-64
2021/04/30 02:21:13;;;;;;;15.17;12.20;;;;;;;8.63;91.41;95412.44;1047736;28;20032;-64
2021/04/30 02:21:43;;;;;;;18.87;12.17;;;;;;;8.64;91.12;95421.22;1048347;28;20024;-64
2021/04/30 02:22:14;;;;;;;16.33;13.07;;;;;;;8.61;90.93;95421.78;1044298;28;20029;-64
2021/04/30 02:22:45;;;;;;;15.53;12.07;;;;;;;8.62;91.07;95421.50;1044310;28;20029;-64
2021/04/30 02:23:15;;;;;;;16.80;12.47;;;;;;;8.60;91.05;95418.31;1052719;28;20016;-64
2021/04/30 02:23:45;;;;;;;15.67;12.87;;;;;;;8.58;90.85;95409.78;1052726;28;20036;-64
2021/04/30 02:24:16;;;;;;;14.77;11.77;;;;;;;8.56;90.61;95411.94;1052664;28;20024;-64
2021/04/30 02:24:46;;;;;;;17.03;12.23;;;;;;;8.56;90.92;95420.72;1052645;28;20028;-64
2021/04/30 02:25:17;;;;;;;16.03;12.13;;;;;;;8.59;90.56;95417.50;1052689;28;20028;-65